sensor_id;sensor_type;location;lat;lon;timestamp;P1;durP1;ratioP1;P2;durP2;ratioP2
64487;SDS011;50864;45.050;39.014;2023-02-22T00:49:39;3.05;;;2.05;;
64487;SDS011;50864;45.050;39.014;2023-02-22T00:52:07;3.95;;;2.17;;
64487;SDS011;50864;45.050;39.014;2023-02-22T00:54:33;4.32;;;2.17;;
64487;SDS011;50864;45.050;39.014;2023-02-22T00:57:01;2.17;;;1.85;;
64487;SDS011;50864;45.050;39.014;2023-02-22T00:59:27;5.97;;;2.28;;
64487;SDS011;50864;45.050;39.014;2023-02-22T01:01:55;2.03;;;1.80;;
64487;SDS011;50864;45.050;39.014;2023-02-22T01:04:21;3.33;;;2.22;;
64487;SDS011;50864;45.050;39.014;2023-02-22T01:06:48;5.43;;;1.92;;
64487;SDS011;50864;45.050;39.014;2023-02-22T01:09:14;2.00;;;1.80;;
64487;SDS011;50864;45.050;39.014;2023-02-22T01:11:40;4.72;;;2.25;;
64487;SDS011;50864;45.050;39.014;2023-02-22T01:14:06;5.18;;;2.00;;
64487;SDS011;50864;45.050;39.014;2023-02-22T01:16:34;2.67;;;2.10;;
64487;SDS011;50864;45.050;39.014;2023-02-22T01:19:01;4.07;;;1.80;;
64487;SDS011;50864;45.050;39.014;2023-02-22T01:21:27;4.57;;;2.30;;
64487;SDS011;50864;45.050;39.014;2023-02-22T01:23:53;3.28;;;2.05;;
64487;SDS011;50864;45.050;39.014;2023-02-22T01:26:19;5.53;;;2.10;;
64487;SDS011;50864;45.050;39.014;2023-02-22T01:28:45;2.40;;;2.00;;
64487;SDS011;50864;45.050;39.014;2023-02-22T01:31:11;4.60;;;2.03;;
64487;SDS011;50864;45.050;39.014;2023-02-22T01:33:38;3.60;;;2.00;;
64487;SDS011;50864;45.050;39.014;2023-02-22T01:36:06;4.78;;;2.33;;
64487;SDS011;50864;45.050;39.014;2023-02-22T01:38:36;1.90;;;1.80;;
64487;SDS011;50864;45.050;39.014;2023-02-22T01:41:03;3.80;;;2.10;;
64487;SDS011;50864;45.050;39.014;2023-02-22T01:43:30;3.70;;;2.03;;
64487;SDS011;50864;45.050;39.014;2023-02-22T01:48:35;4.28;;;1.87;;
64487;SDS011;50864;45.050;39.014;2023-02-22T01:51:05;4.72;;;2.00;;
64487;SDS011;50864;45.050;39.014;2023-02-22T01:53:37;6.95;;;2.60;;
64487;SDS011;50864;45.050;39.014;2023-02-22T01:56:07;3.17;;;1.98;;
64487;SDS011;50864;45.050;39.014;2023-02-22T01:58:34;4.12;;;3.25;;
64487;SDS011;50864;45.050;39.014;2023-02-22T02:01:03;3.05;;;2.20;;
64487;SDS011;50864;45.050;39.014;2023-02-22T02:03:32;3.87;;;2.05;;
64487;SDS011;50864;45.050;39.014;2023-02-22T02:06:02;2.85;;;2.10;;
64487;SDS011;50864;45.050;39.014;2023-02-22T02:11:39;3.90;;;2.15;;
64487;SDS011;50864;45.050;39.014;2023-02-22T02:14:07;3.45;;;1.80;;
64487;SDS011;50864;45.050;39.014;2023-02-22T02:16:37;4.62;;;2.35;;
64487;SDS011;50864;45.050;39.014;2023-02-22T02:19:07;2.97;;;2.35;;
64487;SDS011;50864;45.050;39.014;2023-02-22T02:21:41;3.05;;;2.00;;
64487;SDS011;50864;45.050;39.014;2023-02-22T02:26:58;5.82;;;2.50;;
64487;SDS011;50864;45.050;39.014;2023-02-22T02:35:29;12.02;;;2.58;;
64487;SDS011;50864;45.050;39.014;2023-02-22T02:40:38;2.00;;;1.83;;
64487;SDS011;50864;45.050;39.014;2023-02-22T02:43:14;5.43;;;2.05;;
64487;SDS011;50864;45.050;39.014;2023-02-22T02:46:03;2.83;;;1.80;;
64487;SDS011;50864;45.050;39.014;2023-02-22T02:48:37;3.28;;;2.10;;
64487;SDS011;50864;45.050;39.014;2023-02-22T02:51:08;3.47;;;2.33;;
64487;SDS011;50864;45.050;39.014;2023-02-22T02:53:40;1.92;;;1.73;;
64487;SDS011;50864;45.050;39.014;2023-02-22T02:56:11;2.75;;;1.92;;
64487;SDS011;50864;45.050;39.014;2023-02-22T02:58:47;2.67;;;2.20;;
64487;SDS011;50864;45.050;39.014;2023-02-22T03:10:09;2.22;;;1.77;;
64487;SDS011;50864;45.050;39.014;2023-02-22T03:12:47;2.10;;;1.77;;
64487;SDS011;50864;45.050;39.014;2023-02-22T03:15:32;3.37;;;1.90;;
64487;SDS011;50864;45.050;39.014;2023-02-22T03:18:03;5.43;;;1.70;;
64487;SDS011;50864;45.050;39.014;2023-02-22T03:20:41;3.30;;;1.85;;
64487;SDS011;50864;45.050;39.014;2023-02-22T03:25:59;5.27;;;2.20;;
64487;SDS011;50864;45.050;39.014;2023-02-22T03:28:34;2.20;;;1.60;;
64487;SDS011;50864;45.050;39.014;2023-02-22T03:31:22;4.15;;;2.10;;
64487;SDS011;50864;45.050;39.014;2023-02-22T03:33:53;2.15;;;1.60;;
64487;SDS011;50864;45.050;39.014;2023-02-22T03:36:27;2.00;;;1.80;;
64487;SDS011;50864;45.050;39.014;2023-02-22T03:38:56;4.45;;;2.20;;
64487;SDS011;50864;45.050;39.014;2023-02-22T03:41:24;1.60;;;1.50;;
64487;SDS011;50864;45.050;39.014;2023-02-22T03:43:57;3.72;;;2.00;;
64487;SDS011;50864;45.050;39.014;2023-02-22T03:46:30;2.20;;;2.00;;
64487;SDS011;50864;45.050;39.014;2023-02-22T03:49:04;4.75;;;2.30;;
64487;SDS011;50864;45.050;39.014;2023-02-22T03:51:55;2.30;;;1.77;;
64487;SDS011;50864;45.050;39.014;2023-02-22T03:54:22;2.12;;;1.58;;
64487;SDS011;50864;45.050;39.014;2023-02-22T03:56:49;15.52;;;3.12;;
64487;SDS011;50864;45.050;39.014;2023-02-22T03:59:20;4.50;;;2.17;;
64487;SDS011;50864;45.050;39.014;2023-02-22T04:01:54;6.62;;;2.58;;
64487;SDS011;50864;45.050;39.014;2023-02-22T04:04:22;7.22;;;2.17;;
64487;SDS011;50864;45.050;39.014;2023-02-22T04:06:49;6.55;;;3.55;;
64487;SDS011;50864;45.050;39.014;2023-02-22T04:09:16;5.43;;;2.20;;
64487;SDS011;50864;45.050;39.014;2023-02-22T04:11:43;5.18;;;2.00;;
64487;SDS011;50864;45.050;39.014;2023-02-22T04:14:10;3.90;;;2.35;;
64487;SDS011;50864;45.050;39.014;2023-02-22T04:16:36;2.10;;;1.90;;
64487;SDS011;50864;45.050;39.014;2023-02-22T04:19:04;3.17;;;2.17;;
64487;SDS011;50864;45.050;39.014;2023-02-22T04:21:32;3.67;;;2.35;;
64487;SDS011;50864;45.050;39.014;2023-02-22T04:23:58;3.40;;;2.17;;
64487;SDS011;50864;45.050;39.014;2023-02-22T04:26:25;2.37;;;1.87;;
64487;SDS011;50864;45.050;39.014;2023-02-22T04:28:51;3.92;;;2.35;;
64487;SDS011;50864;45.050;39.014;2023-02-22T04:31:17;3.80;;;2.50;;
64487;SDS011;50864;45.050;39.014;2023-02-22T04:33:43;9.93;;;2.72;;
64487;SDS011;50864;45.050;39.014;2023-02-22T04:36:10;3.80;;;2.35;;
64487;SDS011;50864;45.050;39.014;2023-02-22T04:38:42;4.07;;;2.55;;
64487;SDS011;50864;45.050;39.014;2023-02-22T04:41:08;3.75;;;2.20;;
64487;SDS011;50864;45.050;39.014;2023-02-22T04:43:34;4.82;;;1.98;;
64487;SDS011;50864;45.050;39.014;2023-02-22T04:46:00;5.32;;;2.35;;
64487;SDS011;50864;45.050;39.014;2023-02-22T04:48:27;1.75;;;1.65;;
64487;SDS011;50864;45.050;39.014;2023-02-22T04:50:53;4.55;;;2.10;;
64487;SDS011;50864;45.050;39.014;2023-02-22T04:53:19;2.42;;;2.08;;
64487;SDS011;50864;45.050;39.014;2023-02-22T04:55:45;5.20;;;2.92;;
64487;SDS011;50864;45.050;39.014;2023-02-22T04:58:11;2.47;;;1.90;;
64487;SDS011;50864;45.050;39.014;2023-02-22T05:00:37;4.25;;;2.15;;
64487;SDS011;50864;45.050;39.014;2023-02-22T05:03:04;2.25;;;1.60;;
64487;SDS011;50864;45.050;39.014;2023-02-22T05:05:30;2.67;;;2.03;;
64487;SDS011;50864;45.050;39.014;2023-02-22T05:07:55;2.55;;;2.08;;
64487;SDS011;50864;45.050;39.014;2023-02-22T05:10:22;2.65;;;2.03;;
64487;SDS011;50864;45.050;39.014;2023-02-22T05:12:49;1.95;;;1.70;;
64487;SDS011;50864;45.050;39.014;2023-02-22T05:15:17;3.78;;;1.90;;
64487;SDS011;50864;45.050;39.014;2023-02-22T05:17:44;3.72;;;2.15;;
64487;SDS011;50864;45.050;39.014;2023-02-22T05:20:29;3.10;;;2.20;;
64487;SDS011;50864;45.050;39.014;2023-02-22T05:22:58;3.95;;;1.75;;
64487;SDS011;50864;45.050;39.014;2023-02-22T05:25:25;4.70;;;2.20;;
64487;SDS011;50864;45.050;39.014;2023-02-22T05:27:52;7.80;;;2.15;;
64487;SDS011;50864;45.050;39.014;2023-02-22T05:30:21;4.28;;;1.90;;
64487;SDS011;50864;45.050;39.014;2023-02-22T05:32:50;3.12;;;1.90;;
64487;SDS011;50864;45.050;39.014;2023-02-22T05:35:16;3.53;;;1.70;;
64487;SDS011;50864;45.050;39.014;2023-02-22T05:37:43;2.45;;;1.77;;
64487;SDS011;50864;45.050;39.014;2023-02-22T05:40:10;5.43;;;2.05;;
64487;SDS011;50864;45.050;39.014;2023-02-22T05:42:36;4.25;;;2.15;;
64487;SDS011;50864;45.050;39.014;2023-02-22T05:45:02;4.47;;;2.17;;
64487;SDS011;50864;45.050;39.014;2023-02-22T05:47:28;1.73;;;1.50;;
64487;SDS011;50864;45.050;39.014;2023-02-22T05:49:54;3.00;;;1.80;;
64487;SDS011;50864;45.050;39.014;2023-02-22T05:52:20;5.72;;;2.45;;
64487;SDS011;50864;45.050;39.014;2023-02-22T05:54:46;3.42;;;1.95;;
64487;SDS011;50864;45.050;39.014;2023-02-22T05:57:12;4.80;;;2.17;;
64487;SDS011;50864;45.050;39.014;2023-02-22T05:59:38;3.33;;;2.15;;
64487;SDS011;50864;45.050;39.014;2023-02-22T06:02:03;3.62;;;2.00;;
64487;SDS011;50864;45.050;39.014;2023-02-22T06:04:29;5.03;;;2.58;;
64487;SDS011;50864;45.050;39.014;2023-02-22T06:06:55;4.80;;;2.45;;
64487;SDS011;50864;45.050;39.014;2023-02-22T06:09:21;5.28;;;2.42;;
64487;SDS011;50864;45.050;39.014;2023-02-22T06:11:47;3.37;;;2.08;;
64487;SDS011;50864;45.050;39.014;2023-02-22T06:14:13;5.05;;;2.28;;
64487;SDS011;50864;45.050;39.014;2023-02-22T06:16:39;6.53;;;2.40;;
64487;SDS011;50864;45.050;39.014;2023-02-22T06:19:05;2.60;;;1.90;;
64487;SDS011;50864;45.050;39.014;2023-02-22T06:21:30;3.58;;;2.22;;
64487;SDS011;50864;45.050;39.014;2023-02-22T06:23:56;6.32;;;2.30;;
64487;SDS011;50864;45.050;39.014;2023-02-22T06:26:22;3.78;;;2.45;;
64487;SDS011;50864;45.050;39.014;2023-02-22T06:28:48;5.43;;;2.55;;
64487;SDS011;50864;45.050;39.014;2023-02-22T06:31:14;5.43;;;2.40;;
64487;SDS011;50864;45.050;39.014;2023-02-22T06:33:42;2.75;;;1.83;;
64487;SDS011;50864;45.050;39.014;2023-02-22T06:36:08;3.67;;;2.33;;
64487;SDS011;50864;45.050;39.014;2023-02-22T06:38:34;4.35;;;2.05;;
64487;SDS011;50864;45.050;39.014;2023-02-22T06:41:00;3.97;;;1.92;;
64487;SDS011;50864;45.050;39.014;2023-02-22T06:43:27;3.87;;;1.75;;
64487;SDS011;50864;45.050;39.014;2023-02-22T06:45:52;2.80;;;1.60;;
64487;SDS011;50864;45.050;39.014;2023-02-22T06:48:19;5.65;;;2.25;;
64487;SDS011;50864;45.050;39.014;2023-02-22T06:50:44;3.90;;;1.87;;
64487;SDS011;50864;45.050;39.014;2023-02-22T06:53:10;3.97;;;2.10;;
64487;SDS011;50864;45.050;39.014;2023-02-22T06:55:36;3.90;;;2.40;;
64487;SDS011;50864;45.050;39.014;2023-02-22T06:58:02;2.30;;;2.10;;
64487;SDS011;50864;45.050;39.014;2023-02-22T07:00:29;4.18;;;2.12;;
64487;SDS011;50864;45.050;39.014;2023-02-22T07:02:56;3.47;;;2.33;;
64487;SDS011;50864;45.050;39.014;2023-02-22T07:05:23;3.15;;;1.90;;
64487;SDS011;50864;45.050;39.014;2023-02-22T07:07:51;6.80;;;2.60;;
64487;SDS011;50864;45.050;39.014;2023-02-22T07:10:20;4.05;;;2.20;;
64487;SDS011;50864;45.050;39.014;2023-02-22T07:12:46;5.60;;;2.50;;
64487;SDS011;50864;45.050;39.014;2023-02-22T07:15:13;6.47;;;2.80;;
64487;SDS011;50864;45.050;39.014;2023-02-22T07:17:42;6.60;;;2.53;;
64487;SDS011;50864;45.050;39.014;2023-02-22T07:20:08;5.10;;;2.15;;
64487;SDS011;50864;45.050;39.014;2023-02-22T07:22:36;4.85;;;2.35;;
64487;SDS011;50864;45.050;39.014;2023-02-22T07:25:06;2.92;;;1.80;;
64487;SDS011;50864;45.050;39.014;2023-02-22T07:30:06;5.00;;;2.83;;
64487;SDS011;50864;45.050;39.014;2023-02-22T07:32:33;2.70;;;2.12;;
64487;SDS011;50864;45.050;39.014;2023-02-22T07:34:59;6.37;;;2.97;;
64487;SDS011;50864;45.050;39.014;2023-02-22T07:37:27;5.80;;;2.70;;
64487;SDS011;50864;45.050;39.014;2023-02-22T07:39:54;5.93;;;2.95;;
64487;SDS011;50864;45.050;39.014;2023-02-22T07:42:19;5.18;;;2.45;;
64487;SDS011;50864;45.050;39.014;2023-02-22T07:44:48;4.53;;;2.90;;
64487;SDS011;50864;45.050;39.014;2023-02-22T07:47:14;4.90;;;3.10;;
64487;SDS011;50864;45.050;39.014;2023-02-22T07:49:40;2.75;;;2.28;;
64487;SDS011;50864;45.050;39.014;2023-02-22T07:52:06;6.57;;;2.45;;
64487;SDS011;50864;45.050;39.014;2023-02-22T07:54:32;5.57;;;2.90;;
64487;SDS011;50864;45.050;39.014;2023-02-22T07:56:57;5.18;;;2.83;;
64487;SDS011;50864;45.050;39.014;2023-02-22T07:59:24;4.90;;;3.08;;
64487;SDS011;50864;45.050;39.014;2023-02-22T08:01:49;5.70;;;3.10;;
64487;SDS011;50864;45.050;39.014;2023-02-22T08:04:15;5.78;;;3.22;;
64487;SDS011;50864;45.050;39.014;2023-02-22T08:06:41;7.45;;;3.08;;
64487;SDS011;50864;45.050;39.014;2023-02-22T08:09:10;7.57;;;3.65;;
64487;SDS011;50864;45.050;39.014;2023-02-22T08:11:37;10.85;;;3.22;;
64487;SDS011;50864;45.050;39.014;2023-02-22T08:14:02;5.68;;;2.90;;
64487;SDS011;50864;45.050;39.014;2023-02-22T08:16:28;4.40;;;3.12;;
64487;SDS011;50864;45.050;39.014;2023-02-22T08:18:54;6.85;;;3.55;;
64487;SDS011;50864;45.050;39.014;2023-02-22T08:21:20;5.85;;;3.42;;
64487;SDS011;50864;45.050;39.014;2023-02-22T08:23:49;4.12;;;2.72;;
64487;SDS011;50864;45.050;39.014;2023-02-22T08:26:15;7.53;;;3.05;;
64487;SDS011;50864;45.050;39.014;2023-02-22T08:28:42;5.95;;;2.47;;
64487;SDS011;50864;45.050;39.014;2023-02-22T08:31:08;5.57;;;3.25;;
64487;SDS011;50864;45.050;39.014;2023-02-22T08:33:35;3.58;;;2.50;;
64487;SDS011;50864;45.050;39.014;2023-02-22T08:36:01;6.03;;;2.50;;
64487;SDS011;50864;45.050;39.014;2023-02-22T08:38:27;1.95;;;1.80;;
64487;SDS011;50864;45.050;39.014;2023-02-22T08:40:55;7.68;;;2.70;;
64487;SDS011;50864;45.050;39.014;2023-02-22T08:43:21;3.58;;;2.28;;
64487;SDS011;50864;45.050;39.014;2023-02-22T08:45:47;2.35;;;2.00;;
64487;SDS011;50864;45.050;39.014;2023-02-22T08:48:15;7.28;;;3.30;;
64487;SDS011;50864;45.050;39.014;2023-02-22T08:50:41;6.37;;;3.70;;
64487;SDS011;50864;45.050;39.014;2023-02-22T08:53:10;6.03;;;2.53;;
64487;SDS011;50864;45.050;39.014;2023-02-22T08:55:38;3.28;;;2.25;;
64487;SDS011;50864;45.050;39.014;2023-02-22T08:58:05;4.12;;;2.50;;
64487;SDS011;50864;45.050;39.014;2023-02-22T09:00:35;5.72;;;2.53;;
64487;SDS011;50864;45.050;39.014;2023-02-22T09:03:10;5.68;;;3.05;;
64487;SDS011;50864;45.050;39.014;2023-02-22T09:05:38;5.97;;;2.55;;
64487;SDS011;50864;45.050;39.014;2023-02-22T09:08:04;4.55;;;3.05;;
64487;SDS011;50864;45.050;39.014;2023-02-22T09:10:31;4.50;;;2.50;;
64487;SDS011;50864;45.050;39.014;2023-02-22T09:12:58;5.60;;;2.40;;
64487;SDS011;50864;45.050;39.014;2023-02-22T09:15:25;3.28;;;1.90;;
64487;SDS011;50864;45.050;39.014;2023-02-22T09:17:51;5.65;;;2.35;;
64487;SDS011;50864;45.050;39.014;2023-02-22T09:20:21;7.87;;;2.65;;
64487;SDS011;50864;45.050;39.014;2023-02-22T09:22:49;3.20;;;2.20;;
64487;SDS011;50864;45.050;39.014;2023-02-22T09:25:15;3.33;;;2.12;;
64487;SDS011;50864;45.050;39.014;2023-02-22T09:27:43;7.85;;;2.45;;
64487;SDS011;50864;45.050;39.014;2023-02-22T09:30:45;4.43;;;2.45;;
64487;SDS011;50864;45.050;39.014;2023-02-22T09:33:11;3.70;;;2.00;;
64487;SDS011;50864;45.050;39.014;2023-02-22T09:35:40;4.80;;;2.25;;
64487;SDS011;50864;45.050;39.014;2023-02-22T09:38:07;4.47;;;2.03;;
64487;SDS011;50864;45.050;39.014;2023-02-22T09:40:36;2.67;;;2.22;;
64487;SDS011;50864;45.050;39.014;2023-02-22T09:52:07;4.37;;;2.42;;
64487;SDS011;50864;45.050;39.014;2023-02-22T09:54:44;2.85;;;2.00;;
64487;SDS011;50864;45.050;39.014;2023-02-22T09:57:21;3.60;;;2.25;;
64487;SDS011;50864;45.050;39.014;2023-02-22T09:59:58;3.85;;;2.35;;
64487;SDS011;50864;45.050;39.014;2023-02-22T14:40:42;5.45;;;3.03;;
64487;SDS011;50864;45.050;39.014;2023-02-22T14:43:17;5.55;;;2.33;;
64487;SDS011;50864;45.050;39.014;2023-02-22T14:45:50;4.40;;;2.92;;
64487;SDS011;50864;45.050;39.014;2023-02-22T14:48:35;3.40;;;2.72;;
64487;SDS011;50864;45.050;39.014;2023-02-22T14:51:21;6.87;;;3.55;;
64487;SDS011;50864;45.050;39.014;2023-02-22T14:56:30;3.42;;;2.65;;
64487;SDS011;50864;45.050;39.014;2023-02-22T14:59:16;3.87;;;2.83;;
64487;SDS011;50864;45.050;39.014;2023-02-22T15:02:02;5.78;;;3.10;;
64487;SDS011;50864;45.050;39.014;2023-02-22T15:04:34;5.80;;;3.92;;
64487;SDS011;50864;45.050;39.014;2023-02-22T15:07:07;5.40;;;3.20;;
64487;SDS011;50864;45.050;39.014;2023-02-22T15:09:55;7.37;;;3.60;;
64487;SDS011;50864;45.050;39.014;2023-02-22T15:12:52;4.10;;;3.08;;
64487;SDS011;50864;45.050;39.014;2023-02-22T15:15:33;6.78;;;3.20;;
64487;SDS011;50864;45.050;39.014;2023-02-22T15:18:01;5.12;;;2.97;;
64487;SDS011;50864;45.050;39.014;2023-02-22T15:20:32;7.03;;;4.00;;
64487;SDS011;50864;45.050;39.014;2023-02-22T15:23:00;7.97;;;4.25;;
64487;SDS011;50864;45.050;39.014;2023-02-22T15:25:27;7.00;;;3.92;;
64487;SDS011;50864;45.050;39.014;2023-02-22T15:27:59;8.05;;;3.75;;
64487;SDS011;50864;45.050;39.014;2023-02-22T15:30:30;5.90;;;3.78;;
64487;SDS011;50864;45.050;39.014;2023-02-22T15:33:09;10.57;;;4.65;;
64487;SDS011;50864;45.050;39.014;2023-02-22T15:35:39;5.95;;;3.42;;
64487;SDS011;50864;45.050;39.014;2023-02-22T15:38:06;4.87;;;3.42;;
64487;SDS011;50864;45.050;39.014;2023-02-22T15:40:44;6.57;;;2.75;;
64487;SDS011;50864;45.050;39.014;2023-02-22T15:43:19;6.37;;;3.50;;
64487;SDS011;50864;45.050;39.014;2023-02-22T15:45:53;7.55;;;3.72;;
64487;SDS011;50864;45.050;39.014;2023-02-22T15:48:20;5.93;;;3.70;;
64487;SDS011;50864;45.050;39.014;2023-02-22T15:51:19;9.27;;;4.62;;
64487;SDS011;50864;45.050;39.014;2023-02-22T15:53:45;6.93;;;3.83;;
64487;SDS011;50864;45.050;39.014;2023-02-22T15:56:17;14.65;;;5.20;;
64487;SDS011;50864;45.050;39.014;2023-02-22T15:58:51;6.60;;;4.68;;
64487;SDS011;50864;45.050;39.014;2023-02-22T16:01:25;6.25;;;4.22;;
64487;SDS011;50864;45.050;39.014;2023-02-22T16:03:57;9.13;;;4.82;;
64487;SDS011;50864;45.050;39.014;2023-02-22T16:06:34;7.00;;;4.28;;
64487;SDS011;50864;45.050;39.014;2023-02-22T16:09:07;8.45;;;4.43;;
64487;SDS011;50864;45.050;39.014;2023-02-22T16:11:40;6.22;;;4.15;;
64487;SDS011;50864;45.050;39.014;2023-02-22T16:17:08;5.57;;;3.67;;
64487;SDS011;50864;45.050;39.014;2023-02-22T16:22:49;6.62;;;4.07;;
64487;SDS011;50864;45.050;39.014;2023-02-22T16:32:47;6.80;;;4.28;;
64487;SDS011;50864;45.050;39.014;2023-02-22T16:35:14;10.45;;;3.90;;
64487;SDS011;50864;45.050;39.014;2023-02-22T16:37:47;5.47;;;3.55;;
64487;SDS011;50864;45.050;39.014;2023-02-22T16:43:03;7.37;;;4.43;;
64487;SDS011;50864;45.050;39.014;2023-02-22T16:45:29;5.87;;;3.78;;
64487;SDS011;50864;45.050;39.014;2023-02-22T16:47:55;5.68;;;3.65;;
64487;SDS011;50864;45.050;39.014;2023-02-22T16:50:23;7.30;;;4.12;;
64487;SDS011;50864;45.050;39.014;2023-02-22T16:52:50;10.93;;;5.57;;
64487;SDS011;50864;45.050;39.014;2023-02-22T16:55:18;8.52;;;5.57;;
64487;SDS011;50864;45.050;39.014;2023-02-22T16:57:45;6.65;;;4.03;;
64487;SDS011;50864;45.050;39.014;2023-02-22T17:00:21;7.40;;;4.40;;
64487;SDS011;50864;45.050;39.014;2023-02-22T17:02:59;7.37;;;4.20;;
64487;SDS011;50864;45.050;39.014;2023-02-22T17:05:30;6.68;;;4.50;;
64487;SDS011;50864;45.050;39.014;2023-02-22T17:08:00;7.78;;;4.47;;
64487;SDS011;50864;45.050;39.014;2023-02-22T17:10:27;16.40;;;8.68;;
64487;SDS011;50864;45.050;39.014;2023-02-22T17:12:53;12.23;;;6.03;;
64487;SDS011;50864;45.050;39.014;2023-02-22T17:15:30;9.65;;;5.32;;
64487;SDS011;50864;45.050;39.014;2023-02-22T17:17:59;6.80;;;4.20;;
64487;SDS011;50864;45.050;39.014;2023-02-22T17:20:30;9.10;;;5.28;;
64487;SDS011;50864;45.050;39.014;2023-02-22T17:25:32;7.80;;;4.68;;
64487;SDS011;50864;45.050;39.014;2023-02-22T17:28:05;7.20;;;4.28;;
64487;SDS011;50864;45.050;39.014;2023-02-22T17:30:32;7.30;;;4.28;;
64487;SDS011;50864;45.050;39.014;2023-02-22T17:33:00;8.48;;;5.07;;
64487;SDS011;50864;45.050;39.014;2023-02-22T17:35:28;6.93;;;3.62;;
64487;SDS011;50864;45.050;39.014;2023-02-22T17:37:59;8.07;;;5.05;;
64487;SDS011;50864;45.050;39.014;2023-02-22T17:40:26;7.87;;;4.50;;
64487;SDS011;50864;45.050;39.014;2023-02-22T17:42:53;8.77;;;5.10;;
64487;SDS011;50864;45.050;39.014;2023-02-22T17:45:21;8.18;;;4.95;;
64487;SDS011;50864;45.050;39.014;2023-02-22T17:47:48;8.70;;;5.30;;
64487;SDS011;50864;45.050;39.014;2023-02-22T17:50:16;8.55;;;5.37;;
64487;SDS011;50864;45.050;39.014;2023-02-22T17:52:42;8.88;;;5.55;;
64487;SDS011;50864;45.050;39.014;2023-02-22T17:55:09;11.02;;;5.60;;
64487;SDS011;50864;45.050;39.014;2023-02-22T17:57:36;14.70;;;8.43;;
64487;SDS011;50864;45.050;39.014;2023-02-22T18:00:05;18.80;;;6.68;;
64487;SDS011;50864;45.050;39.014;2023-02-22T18:02:41;9.40;;;5.90;;
64487;SDS011;50864;45.050;39.014;2023-02-22T18:05:08;11.18;;;5.78;;
64487;SDS011;50864;45.050;39.014;2023-02-22T18:07:35;8.65;;;5.30;;
64487;SDS011;50864;45.050;39.014;2023-02-22T18:10:05;10.23;;;5.85;;
64487;SDS011;50864;45.050;39.014;2023-02-22T18:12:37;11.02;;;5.70;;
64487;SDS011;50864;45.050;39.014;2023-02-22T18:15:04;12.10;;;6.07;;
64487;SDS011;50864;45.050;39.014;2023-02-22T18:17:32;18.02;;;6.75;;
64487;SDS011;50864;45.050;39.014;2023-02-22T18:19:58;17.23;;;7.12;;
64487;SDS011;50864;45.050;39.014;2023-02-22T18:22:25;12.00;;;6.78;;
64487;SDS011;50864;45.050;39.014;2023-02-22T18:24:50;12.63;;;7.10;;
64487;SDS011;50864;45.050;39.014;2023-02-22T18:27:19;12.68;;;6.50;;
64487;SDS011;50864;45.050;39.014;2023-02-22T18:29:45;10.10;;;5.97;;
64487;SDS011;50864;45.050;39.014;2023-02-22T18:32:11;10.48;;;5.60;;
64487;SDS011;50864;45.050;39.014;2023-02-22T18:34:38;9.70;;;5.85;;
64487;SDS011;50864;45.050;39.014;2023-02-22T18:37:04;9.05;;;5.70;;
64487;SDS011;50864;45.050;39.014;2023-02-22T18:39:30;13.25;;;6.25;;
64487;SDS011;50864;45.050;39.014;2023-02-22T18:42:05;11.25;;;5.97;;
64487;SDS011;50864;45.050;39.014;2023-02-22T18:44:31;14.10;;;7.12;;
64487;SDS011;50864;45.050;39.014;2023-02-22T18:46:56;11.57;;;6.07;;
64487;SDS011;50864;45.050;39.014;2023-02-22T18:49:23;17.77;;;6.55;;
64487;SDS011;50864;45.050;39.014;2023-02-22T18:51:51;13.05;;;6.53;;
64487;SDS011;50864;45.050;39.014;2023-02-22T18:54:17;10.40;;;5.75;;
64487;SDS011;50864;45.050;39.014;2023-02-22T18:56:44;12.18;;;6.90;;
64487;SDS011;50864;45.050;39.014;2023-02-22T18:59:10;11.80;;;6.65;;
64487;SDS011;50864;45.050;39.014;2023-02-22T19:01:37;12.60;;;6.28;;
64487;SDS011;50864;45.050;39.014;2023-02-22T19:04:05;10.82;;;6.75;;
64487;SDS011;50864;45.050;39.014;2023-02-22T19:06:37;15.93;;;6.30;;
64487;SDS011;50864;45.050;39.014;2023-02-22T19:09:03;12.85;;;6.55;;
64487;SDS011;50864;45.050;39.014;2023-02-22T19:11:33;13.27;;;5.93;;
64487;SDS011;50864;45.050;39.014;2023-02-22T19:14:00;11.00;;;7.20;;
64487;SDS011;50864;45.050;39.014;2023-02-22T19:16:29;11.95;;;6.95;;
64487;SDS011;50864;45.050;39.014;2023-02-22T19:18:56;12.13;;;6.93;;
64487;SDS011;50864;45.050;39.014;2023-02-22T19:21:22;11.12;;;6.57;;
64487;SDS011;50864;45.050;39.014;2023-02-22T19:23:49;11.75;;;6.45;;
64487;SDS011;50864;45.050;39.014;2023-02-22T19:26:17;14.48;;;8.38;;
64487;SDS011;50864;45.050;39.014;2023-02-22T19:28:44;15.55;;;7.93;;
64487;SDS011;50864;45.050;39.014;2023-02-22T19:31:12;14.05;;;7.97;;
64487;SDS011;50864;45.050;39.014;2023-02-22T19:33:42;14.20;;;7.45;;
64487;SDS011;50864;45.050;39.014;2023-02-22T19:36:08;12.15;;;7.95;;
64487;SDS011;50864;45.050;39.014;2023-02-22T19:38:35;12.70;;;7.78;;
64487;SDS011;50864;45.050;39.014;2023-02-22T19:41:13;13.13;;;8.02;;
64487;SDS011;50864;45.050;39.014;2023-02-22T19:43:45;17.62;;;7.95;;
64487;SDS011;50864;45.050;39.014;2023-02-22T19:46:12;13.30;;;7.28;;
64487;SDS011;50864;45.050;39.014;2023-02-22T19:48:37;13.75;;;7.70;;
64487;SDS011;50864;45.050;39.014;2023-02-22T19:51:04;13.57;;;7.75;;
64487;SDS011;50864;45.050;39.014;2023-02-22T19:53:32;15.90;;;9.25;;
64487;SDS011;50864;45.050;39.014;2023-02-22T19:55:59;18.35;;;7.62;;
64487;SDS011;50864;45.050;39.014;2023-02-22T19:58:25;15.13;;;7.60;;
64487;SDS011;50864;45.050;39.014;2023-02-22T20:00:51;13.32;;;7.78;;
64487;SDS011;50864;45.050;39.014;2023-02-22T20:03:17;12.75;;;7.40;;
64487;SDS011;50864;45.050;39.014;2023-02-22T20:05:47;19.55;;;8.65;;
64487;SDS011;50864;45.050;39.014;2023-02-22T20:08:14;14.38;;;8.43;;
64487;SDS011;50864;45.050;39.014;2023-02-22T20:10:40;15.38;;;8.75;;
64487;SDS011;50864;45.050;39.014;2023-02-22T20:13:05;19.98;;;8.07;;
64487;SDS011;50864;45.050;39.014;2023-02-22T20:15:34;15.35;;;8.52;;
64487;SDS011;50864;45.050;39.014;2023-02-22T20:18:00;18.37;;;9.82;;
64487;SDS011;50864;45.050;39.014;2023-02-22T20:20:26;13.77;;;7.90;;
64487;SDS011;50864;45.050;39.014;2023-02-22T20:22:52;21.23;;;9.55;;
64487;SDS011;50864;45.050;39.014;2023-02-22T20:25:18;18.55;;;8.90;;
64487;SDS011;50864;45.050;39.014;2023-02-22T20:27:44;23.60;;;9.93;;
64487;SDS011;50864;45.050;39.014;2023-02-22T20:30:11;24.52;;;13.60;;
64487;SDS011;50864;45.050;39.014;2023-02-22T20:32:37;15.05;;;9.18;;
64487;SDS011;50864;45.050;39.014;2023-02-22T20:35:04;14.65;;;8.88;;
64487;SDS011;50864;45.050;39.014;2023-02-22T20:37:31;19.42;;;9.35;;
64487;SDS011;50864;45.050;39.014;2023-02-22T20:39:58;16.20;;;8.65;;
64487;SDS011;50864;45.050;39.014;2023-02-22T20:42:25;14.52;;;8.13;;
64487;SDS011;50864;45.050;39.014;2023-02-22T20:44:51;16.37;;;9.00;;
64487;SDS011;50864;45.050;39.014;2023-02-22T20:47:17;14.50;;;8.27;;
64487;SDS011;50864;45.050;39.014;2023-02-22T20:49:43;14.75;;;8.82;;
64487;SDS011;50864;45.050;39.014;2023-02-22T20:52:09;14.60;;;8.60;;
64487;SDS011;50864;45.050;39.014;2023-02-22T20:54:35;17.02;;;8.57;;
64487;SDS011;50864;45.050;39.014;2023-02-22T20:57:02;16.87;;;8.73;;
64487;SDS011;50864;45.050;39.014;2023-02-22T20:59:32;15.95;;;8.52;;
64487;SDS011;50864;45.050;39.014;2023-02-22T21:01:58;15.25;;;8.45;;
64487;SDS011;50864;45.050;39.014;2023-02-22T21:04:24;18.75;;;10.13;;
64487;SDS011;50864;45.050;39.014;2023-02-22T21:06:53;20.35;;;8.57;;
64487;SDS011;50864;45.050;39.014;2023-02-22T21:09:19;13.27;;;7.35;;